Time;durP1;ratioP1;P1;durP2;ratioP2;P2;SDS_P1;SDS_P2;PMS_P1;PMS_P2;Temp;Humidity;BMP_temperature;BMP_pressure;BME280_temperature;BME280_humidity;BME280_pressure;Samples;Min_cycle;Max_cycle;Signal;HPM_P1;HPM_P2
2022/09/05 00:02:51;;;;;;;;;;;;;;;22.83;60.51;101782.94;2292812;77;50475;-73
2022/09/05 00:05:57;;;;;;;;;;;;;;;22.84;60.63;101790.03;2292159;77;49640;-76
2022/09/05 00:09:00;;;;;;;;;;;;;;;22.85;60.62;101784.11;2293947;76;51556;-73
2022/09/05 00:12:02;;;;;;;;;;;;;;;22.86;60.59;101793.88;2292040;77;51474;-74
2022/09/05 00:15:08;;;;;;;;;;;;;;;22.85;60.57;101784.11;2292696;77;51508;-74
2022/09/05 00:18:20;;;;;;;;;;;;;;;22.83;60.62;101779.72;2292137;77;52576;-73
2022/09/05 00:21:30;;;;;;;;;;;;;;;22.85;60.74;101784.95;2292653;76;51548;-73
2022/09/05 00:24:33;;;;;;;;;;;;;;;22.82;60.58;101778.06;2292611;77;51542;-73
2022/09/05 00:27:36;;;;;;;;;;;;;;;22.85;60.57;101782.77;2292618;77;51484;-75
2022/09/05 00:30:40;;;;;;;;;;;;;;;22.85;60.62;101785.47;2292330;77;52550;-74
2022/09/05 00:33:49;;;;;;;;;;;;;;;22.83;60.45;101786.98;2292598;77;51772;-74
2022/09/05 00:36:54;;;;;;;;;;;;;;;22.85;60.53;101790.86;2292965;77;51526;-73
2022/09/05 00:39:56;;;;;;;;;;;;;;;22.84;60.60;101788.69;2295267;76;51595;-74
2022/09/05 00:42:59;;;;;;;;;;;;;;;22.81;60.47;101789.89;2259815;77;49637;-74
2022/09/05 00:46:11;;;;;;;;;;;;;;;22.82;60.46;101793.42;2292596;77;51417;-73
2022/09/05 00:49:21;;;;;;;;;;;;;;;22.80;60.75;101793.59;2292650;76;51664;-74
2022/09/05 00:52:33;;;;;;;;;;;;;;;22.82;60.83;101792.06;2292383;77;51347;-74
2022/09/05 00:55:42;;;;;;;;;;;;;;;22.82;60.68;101792.90;2292257;76;52499;-74
2022/09/05 00:58:51;;;;;;;;;;;;;;;22.83;60.68;101797.78;2292450;76;50798;-74
2022/09/05 01:01:55;;;;;;;;;;;;;;;22.82;60.78;101800.16;2292622;76;50424;-74
2022/09/05 01:04:58;;;;;;;;;;;;;;;22.82;60.68;101803.70;2285025;76;50380;-74
2022/09/05 01:08:01;;;;;;;;;;;;;;;22.83;60.29;101803.17;2261200;77;51421;-74
2022/09/05 01:11:19;;;;;;;;;;;;;;;22.81;60.33;101806.56;2293783;76;50446;-74
2022/09/05 01:14:25;;;;;;;;;;;;;;;22.81;60.50;101807.43;2295629;77;50210;-74
2022/09/05 01:17:28;;;;;;;;;;;;;;;22.80;60.42;101803.03;2292483;77;51495;-74
2022/09/05 01:20:49;;;;;;;;;;;;;;;22.81;60.24;101807.43;2292298;76;49644;-74
2022/09/05 01:23:52;;;;;;;;;;;;;;;22.81;60.37;101800.68;2292594;77;51568;-73
2022/09/05 01:26:58;;;;;;;;;;;;;;;22.80;60.63;101800.33;2292436;77;50838;-73
2022/09/05 01:30:03;;;;;;;;;;;;;;;22.81;60.78;101796.63;2285548;77;50262;-74
2022/09/05 01:33:10;;;;;;;;;;;;;;;22.80;61.07;101804.38;2292487;76;51442;-74
2022/09/05 01:36:30;;;;;;;;;;;;;;;22.80;61.00;101803.03;2292608;76;51675;-73
2022/09/05 01:39:33;;;;;;;;;;;;;;;22.80;60.83;101807.08;2293015;76;50312;-74
2022/09/05 01:42:37;;;;;;;;;;;;;;;22.80;60.93;101804.38;2297838;77;50379;-75
2022/09/05 01:45:46;;;;;;;;;;;;;;;22.80;61.05;101809.78;2260497;77;51624;-74
2022/09/05 01:48:48;;;;;;;;;;;;;;;22.78;60.93;101799.67;2292717;76;50834;-75
2022/09/05 01:52:08;;;;;;;;;;;;;;;22.77;60.94;101803.92;2293363;77;50226;-75
2022/09/05 01:55:14;;;;;;;;;;;;;;;22.78;61.07;101807.77;2292994;77;50777;-74
2022/09/05 01:58:21;;;;;;;;;;;;;;;22.79;61.14;101797.32;2292604;76;52613;-74
2022/09/05 02:01:41;;;;;;;;;;;;;;;22.78;61.02;101813.16;2259654;77;50153;-74
2022/09/05 02:04:56;;;;;;;;;;;;;;;22.77;60.95;101818.25;2293387;77;51509;-75
2022/09/05 02:08:16;;;;;;;;;;;;;;;22.79;60.90;101813.52;2292560;77;51433;-73
2022/09/05 02:11:17;;;;;;;;;;;;;;;22.81;60.82;101816.87;2292981;76;50244;-74
2022/09/05 02:14:23;;;;;;;;;;;;;;;22.79;60.87;101814.86;2271258;77;49546;-74
2022/09/05 02:17:42;;;;;;;;;;;;;;;22.81;60.88;101809.27;2292961;76;51573;-74
2022/09/05 02:20:45;;;;;;;;;;;;;;;22.78;61.02;101810.47;2293476;76;50851;-74
2022/09/05 02:23:48;;;;;;;;;;;;;;;22.75;61.32;101812.19;2293355;77;51491;-74
2022/09/05 02:26:55;;;;;;;;;;;;;;;22.77;60.93;101817.41;2292994;77;52499;-75
2022/09/05 02:30:09;;;;;;;;;;;;;;;22.76;60.87;101815.23;2293253;76;51606;-74
2022/09/05 02:33:16;;;;;;;;;;;;;;;22.76;61.08;101813.88;2293185;77;50402;-75
2022/09/05 02:36:19;;;;;;;;;;;;;;;22.75;61.27;101819.45;2292777;77;51774;-75
2022/09/05 02:39:28;;;;;;;;;;;;;;;22.75;61.32;101818.93;2292830;76;51684;-75
2022/09/05 02:42:34;;;;;;;;;;;;;;;22.74;61.29;101819.97;2299611;76;51512;-75
2022/09/05 02:45:46;;;;;;;;;;;;;;;22.73;61.61;101823.67;2297863;76;51523;-75
2022/09/05 02:48:49;;;;;;;;;;;;;;;22.73;61.46;101823.67;2300945;76;50309;-76
2022/09/05 02:51:52;;;;;;;;;;;;;;;22.73;61.40;101820.97;2266090;76;51415;-74
2022/09/05 02:54:54;;;;;;;;;;;;;;;22.73;61.44;101819.63;2295487;76;50381;-75
2022/09/05 02:58:00;;;;;;;;;;;;;;;22.72;61.42;101816.61;2292793;77;50682;-75
2022/09/05 03:01:13;;;;;;;;;;;;;;;22.71;61.43;101819.47;2292888;76;51650;-74
2022/09/05 03:04:29;;;;;;;;;;;;;;;22.72;61.38;101827.39;2293083;77;52434;-74
2022/09/05 03:07:50;;;;;;;;;;;;;;;22.71;61.25;101821.69;2296214;76;51629;-74
2022/09/05 03:11:14;;;;;;;;;;;;;;;22.71;61.08;101823.03;2293378;76;51566;-73
2022/09/05 03:14:31;;;;;;;;;;;;;;;22.73;61.01;101818.78;2293086;77;22448;-74
2022/09/05 03:17:43;;;;;;;;;;;;;;;22.73;60.93;101822.31;2261923;77;50151;-74
2022/09/05 03:21:05;;;;;;;;;;;;;;;22.72;60.88;101815.25;2293282;76;50761;-75
2022/09/05 03:24:14;;;;;;;;;;;;;;;22.72;60.77;101817.95;2293039;77;51561;-76
2022/09/05 03:27:36;;;;;;;;;;;;;;;22.69;60.89;101804.83;2292792;77;51565;-74
2022/09/05 03:30:51;;;;;;;;;;;;;;;22.69;60.79;101805.35;2252804;78;52388;-74
2022/09/05 03:34:02;;;;;;;;;;;;;;;22.67;60.86;101810.91;2278214;78;49967;-74
2022/09/05 03:37:06;;;;;;;;;;;;;;;22.66;61.06;101813.30;2277873;77;51556;-73
2022/09/05 03:40:25;;;;;;;;;;;;;;;22.67;60.89;101817.66;2254341;77;52352;-74
2022/09/05 03:43:37;;;;;;;;;;;;;;;22.67;60.76;101812.78;2323098;75;51046;-75
2022/09/05 03:46:41;;;;;;;;;;;;;;;22.67;59.93;101812.27;2290300;76;50748;-76
2022/09/05 03:49:59;;;;;;;;;;;;;;;22.68;59.55;101811.23;2286449;76;50808;-74
2022/09/05 03:53:05;;;;;;;;;;;;;;;22.67;59.80;101819.53;2282986;77;51494;-74
2022/09/05 03:56:10;;;;;;;;;;;;;;;22.67;60.05;101821.70;2257997;76;51003;-73
2022/09/05 03:59:16;;;;;;;;;;;;;;;22.67;59.33;101810.91;2286568;76;50669;-74
2022/09/05 04:02:19;;;;;;;;;;;;;;;22.66;59.98;101810.60;2296721;76;51606;-74
2022/09/05 04:05:22;;;;;;;;;;;;;;;22.66;59.42;101809.25;2295663;76;50405;-74
2022/09/05 04:08:29;;;;;;;;;;;;;;;22.67;59.73;101810.91;2292944;76;51554;-74
2022/09/05 04:11:34;;;;;;;;;;;;;;;22.68;59.57;101821.19;2286567;77;51709;-73
2022/09/05 04:14:39;;;;;;;;;;;;;;;22.67;59.39;101811.43;2297155;76;23436;-74
2022/09/05 04:17:42;;;;;;;;;;;;;;;22.65;59.37;101818.34;2284289;76;49570;-75
2022/09/05 04:20:49;;;;;;;;;;;;;;;22.65;59.30;101823.74;2289832;76;50659;-73
2022/09/05 04:24:07;;;;;;;;;;;;;;;22.64;59.29;101826.13;2300875;76;50782;-75
2022/09/05 04:27:29;;;;;;;;;;;;;;;22.63;58.68;101821.73;2300649;76;51513;-75
2022/09/05 04:30:41;;;;;;;;;;;;;;;22.64;58.95;101824.78;2235630;78;50414;-73
2022/09/05 04:33:44;;;;;;;;;;;;;;;22.64;58.66;101824.78;2227901;78;50228;-74
2022/09/05 04:36:46;;;;;;;;;;;;;;;22.65;58.84;101829.14;2277165;77;50610;-73
2022/09/05 04:39:47;;;;;;;;;;;;;;;22.65;59.17;101837.23;2268373;76;50249;-72
2022/09/05 04:42:49;;;;;;;;;;;;;;;22.64;58.87;101831.52;2272084;78;50249;-73
2022/09/05 04:45:58;;;;;;;;;;;;;;;22.57;59.42;101829.21;2281766;77;51363;-73
2022/09/05 04:49:16;;;;;;;;;;;;;;;22.58;59.50;101836.27;2144494;81;50423;-72
2022/09/05 04:52:19;;;;;;;;;;;;;;;22.59;58.32;101839.31;2144659;82;51696;-74
2022/09/05 04:55:22;;;;;;;;;;;;;;;22.56;57.86;101838.33;2170410;81;51511;-73
2022/09/05 04:58:26;;;;;;;;;;;;;;;22.54;57.68;101841.20;2154575;81;50962;-74
2022/09/05 05:01:30;;;;;;;;;;;;;;;22.54;57.83;101841.20;2172928;80;50455;-73
2022/09/05 05:04:32;;;;;;;;;;;;;;;22.54;57.68;101839.02;2167430;82;50004;-73
2022/09/05 05:07:35;;;;;;;;;;;;;;;22.53;57.54;101845.41;2167119;82;50423;-73
2022/09/05 05:10:39;;;;;;;;;;;;;;;22.53;57.37;101840.02;2143783;82;50990;-71
2022/09/05 05:13:45;;;;;;;;;;;;;;;22.53;57.35;101846.28;2167120;82;51598;-74
2022/09/05 05:16:51;;;;;;;;;;;;;;;22.54;57.50;101837.16;2198779;79;50769;-74
2022/09/05 05:19:54;;;;;;;;;;;;;;;22.53;57.11;101842.72;2239981;78;51536;-74
2022/09/05 05:23:02;;;;;;;;;;;;;;;22.56;57.65;101850.47;2248338;79;52731;-73
2022/09/05 05:26:05;;;;;;;;;;;;;;;22.58;58.34;101851.11;2270455;77;51589;-73
2022/09/05 05:29:27;;;;;;;;;;;;;;;22.59;58.40;101856.85;2294257;76;51750;-73
2022/09/05 05:32:30;;;;;;;;;;;;;;;22.58;59.03;101856.50;2301369;76;50679;-73
2022/09/05 05:35:32;;;;;;;;;;;;;;;22.59;58.77;101856.85;2327086;76;49709;-73
2022/09/05 05:38:35;;;;;;;;;;;;;;;22.59;58.82;101858.20;2300627;76;51538;-73
2022/09/05 05:41:38;;;;;;;;;;;;;;;22.57;58.48;101852.97;2297843;76;51509;-73
2022/09/05 05:44:40;;;;;;;;;;;;;;;22.60;58.29;101855.81;2295968;76;51446;-73
2022/09/05 05:47:42;;;;;;;;;;;;;;;22.74;58.21;101862.30;2253439;77;52740;-73
2022/09/05 05:50:54;;;;;;;;;;;;;;;22.72;58.48;101862.98;2300794;76;50456;-73
2022/09/05 05:54:07;;;;;;;;;;;;;;;22.72;58.60;101861.13;2300967;76;50662;-72
2022/09/05 05:57:19;;;;;;;;;;;;;;;22.75;58.39;101862.11;2300743;76;50402;-73
2022/09/05 06:00:21;;;;;;;;;;;;;;;22.72;57.91;101862.47;2267425;76;52493;-73
2022/09/05 06:03:28;;;;;;;;;;;;;;;22.76;57.97;101862.94;2288628;76;50685;-74
2022/09/05 06:06:49;;;;;;;;;;;;;;;22.77;57.88;101869.52;2262756;77;50728;-74
2022/09/05 06:10:09;;;;;;;;;;;;;;;22.80;57.77;101866.45;2262747;77;51555;-74
2022/09/05 06:13:20;;;;;;;;;;;;;;;22.74;57.75;101867.70;2307337;76;49251;-75
2022/09/05 06:16:26;;;;;;;;;;;;;;;22.78;57.47;101863.09;2292463;77;51542;-75
2022/09/05 06:19:46;;;;;;;;;;;;;;;22.88;57.92;101875.50;2299618;77;51597;-74
2022/09/05 06:23:01;;;;;;;;;;;;;;;22.91;57.46;101876.48;2300951;76;50418;-75
2022/09/05 06:26:17;;;;;;;;;;;;;;;22.92;57.72;101872.78;2267230;76;52558;-75
2022/09/05 06:29:29;;;;;;;;;;;;;;;22.93;58.08;101873.09;2296224;76;50437;-75
2022/09/05 06:32:49;;;;;;;;;;;;;;;23.00;58.04;101871.38;2292961;77;50773;-74
2022/09/05 06:35:55;;;;;;;;;;;;;;;23.04;57.95;101872.68;2294193;76;50406;-75
2022/09/05 06:39:04;;;;;;;;;;;;;;;23.08;57.75;101875.35;2296103;76;50778;-74
2022/09/05 06:42:24;;;;;;;;;;;;;;;23.14;57.57;101877.82;2299475;76;51640;-73
2022/09/05 06:45:27;;;;;;;;;;;;;;;23.18;57.40;101882.68;2302004;76;51687;-74
2022/09/05 06:48:33;;;;;;;;;;;;;;;23.18;57.39;101878.63;2300686;76;50760;-73
2022/09/05 06:51:36;;;;;;;;;;;;;;;23.21;57.18;101882.30;2241236;77;52754;-73
2022/09/05 06:54:40;;;;;;;;;;;;;;;23.22;57.11;101883.14;2298437;76;51498;-73
2022/09/05 06:57:58;;;;;;;;;;;;;;;23.22;56.96;101881.30;2292657;76;51474;-74
2022/09/05 07:01:00;;;;;;;;;;;;;;;23.23;56.85;101885.67;2295222;76;50786;-73
2022/09/05 07:04:03;;;;;;;;;;;;;;;23.21;56.84;101887.70;2263066;77;50963;-74
2022/09/05 07:07:15;;;;;;;;;;;;;;;23.20;56.91;101892.80;2299713;76;50837;-73
2022/09/05 07:10:24;;;;;;;;;;;;;;;23.20;56.95;101898.71;2303906;76;50168;-74
2022/09/05 07:13:30;;;;;;;;;;;;;;;23.19;56.99;101899.72;2301912;75;51060;-74
2022/09/05 07:16:37;;;;;;;;;;;;;;;23.17;57.02;101904.45;2308968;74;50192;-75
2022/09/05 07:19:40;;;;;;;;;;;;;;;23.15;56.99;101904.66;2292848;76;51516;-75
2022/09/05 07:22:46;;;;;;;;;;;;;;;23.15;57.01;101907.35;2296420;77;51528;-75
2022/09/05 07:25:48;;;;;;;;;;;;;;;23.17;57.05;101912.55;2299039;76;50849;-75
2022/09/05 07:28:51;;;;;;;;;;;;;;;23.21;56.56;101903.08;2267482;77;49688;-74
2022/09/05 07:31:53;;;;;;;;;;;;;;;23.19;56.72;101910.52;2299996;77;50306;-74
2022/09/05 07:34:55;;;;;;;;;;;;;;;23.18;56.80;101912.38;2297321;77;51516;-75
2022/09/05 07:38:01;;;;;;;;;;;;;;;23.18;56.76;101915.08;2299999;76;50784;-76
2022/09/05 07:41:13;;;;;;;;;;;;;;;23.19;56.82;101903.25;2265692;77;50166;-75
2022/09/05 07:44:16;;;;;;;;;;;;;;;23.17;56.83;101906.67;2298296;77;50435;-75
2022/09/05 07:47:22;;;;;;;;;;;;;;;23.13;56.64;101908.04;2298797;77;50467;-75
2022/09/05 07:50:24;;;;;;;;;;;;;;;23.14;56.21;101911.58;2297402;76;50684;-74
2022/09/05 07:53:26;;;;;;;;;;;;;;;23.14;55.84;101912.92;2265724;77;49865;-75
2022/09/05 07:56:44;;;;;;;;;;;;;;;23.09;55.68;101914.81;2298660;76;50338;-75
2022/09/05 07:59:46;;;;;;;;;;;;;;;23.09;55.29;101909.41;2297218;76;50271;-75
2022/09/05 08:02:48;;;;;;;;;;;;;;;23.08;55.04;101909.09;2292728;77;51445;-75
2022/09/05 08:05:49;;;;;;;;;;;;;;;23.08;54.70;101910.45;2292689;77;51425;-73
2022/09/05 08:08:53;;;;;;;;;;;;;;;23.08;54.37;101917.20;2292592;76;50765;-75
2022/09/05 08:11:55;;;;;;;;;;;;;;;23.07;54.08;101914.19;2292617;76;50395;-74
2022/09/05 08:15:07;;;;;;;;;;;;;;;23.07;53.82;101916.88;2296698;77;51657;-74
2022/09/05 08:18:10;;;;;;;;;;;;;;;23.06;53.64;101911.13;2259442;77;51006;-75
2022/09/05 08:21:14;;;;;;;;;;;;;;;23.08;53.31;101915.02;2292828;76;51444;-75
2022/09/05 08:24:24;;;;;;;;;;;;;;;23.03;53.19;101904.76;2291925;77;51629;-75
2022/09/05 08:27:40;;;;;;;;;;;;;;;23.00;53.00;101907.31;2292714;77;50539;-75
2022/09/05 08:30:46;;;;;;;;;;;;;;;23.01;52.83;101908.97;2257762;77;51906;-75
2022/09/05 08:33:48;;;;;;;;;;;;;;;23.01;52.60;101905.44;2292687;77;51520;-75
2022/09/05 08:36:50;;;;;;;;;;;;;;;23.02;52.26;101900.39;2292493;77;51493;-75
2022/09/05 08:39:52;;;;;;;;;;;;;;;23.01;52.05;101891.95;2292515;76;51597;-74
2022/09/05 08:42:58;;;;;;;;;;;;;;;22.98;51.89;101900.41;2261005;77;51007;-75
2022/09/05 08:46:01;;;;;;;;;;;;;;;22.98;51.85;101887.75;2293540;76;51516;-74
2022/09/05 08:49:05;;;;;;;;;;;;;;;22.96;51.72;101888.92;2300696;76;50456;-75
2022/09/05 08:52:07;;;;;;;;;;;;;;;22.95;51.48;101889.95;2299984;76;50251;-76
2022/09/05 08:55:13;;;;;;;;;;;;;;;22.93;51.48;101883.89;2267424;77;51049;-73
2022/09/05 08:58:33;;;;;;;;;;;;;;;22.90;51.63;101875.65;2300739;76;51532;-74
2022/09/05 09:01:36;;;;;;;;;;;;;;;22.89;51.56;101876.68;2300942;76;51552;-76
2022/09/05 09:04:54;;;;;;;;;;;;;;;22.88;51.55;101872.80;2301604;76;50944;-75
2022/09/05 09:07:57;;;;;;;;;;;;;;;22.86;51.54;101880.23;2267238;77;49617;-75
2022/09/05 09:11:03;;;;;;;;;;;;;;;22.86;51.42;101868.09;2300906;76;50505;-75
2022/09/05 09:14:21;;;;;;;;;;;;;;;22.86;51.41;101861.34;2298154;76;50768;-75
2022/09/05 09:17:33;;;;;;;;;;;;;;;22.83;51.33;101867.43;2292854;77;51562;-75
2022/09/05 09:20:45;;;;;;;;;;;;;;;22.82;51.41;101862.23;2292517;77;52395;-75
2022/09/05 09:24:07;;;;;;;;;;;;;;;22.81;51.42;101865.45;2292702;77;50862;-75
2022/09/05 09:27:10;;;;;;;;;;;;;;;22.78;51.74;101867.13;2292388;77;51572;-73
2022/09/05 09:30:12;;;;;;;;;;;;;;;22.78;51.51;101859.55;2292557;76;51509;-74
2022/09/05 09:33:16;;;;;;;;;;;;;;;22.77;51.58;101864.12;2259665;77;51023;-77
2022/09/05 09:36:36;;;;;;;;;;;;;;;22.77;51.59;101866.81;2292498;77;51484;-77
2022/09/05 09:39:54;;;;;;;;;;;;;;;22.80;51.63;101870.50;2292605;76;51581;-74
2022/09/05 09:43:05;;;;;;;;;;;;;;;22.82;52.22;101873.02;2294132;77;50423;-73
2022/09/05 09:46:09;;;;;;;;;;;;;;;22.87;51.79;101863.87;2299360;76;49616;-74
2022/09/05 09:49:12;;;;;;;;;;;;;;;22.86;51.48;101866.74;2292675;76;51556;-73
2022/09/05 09:52:27;;;;;;;;;;;;;;;22.86;51.33;101859.48;2285065;77;51629;-74
2022/09/05 09:55:47;;;;;;;;;;;;;;;22.90;51.70;101865.37;2292690;77;50462;-74
2022/09/05 09:58:50;;;;;;;;;;;;;;;22.87;51.54;101862.52;2259531;76;50991;-73
2022/09/05 10:01:56;;;;;;;;;;;;;;;22.88;51.75;101863.36;2284962;76;51701;-75
2022/09/05 10:05:06;;;;;;;;;;;;;;;22.86;51.50;101858.64;2292780;77;50430;-76
2022/09/05 10:08:15;;;;;;;;;;;;;;;22.83;51.49;101852.59;2292432;77;50762;-73
2022/09/05 10:11:35;;;;;;;;;;;;;;;22.81;51.65;101848.39;2292292;77;50349;-74
2022/09/05 10:14:51;;;;;;;;;;;;;;;22.79;51.51;101835.10;2296703;76;51585;-74
2022/09/05 10:17:54;;;;;;;;;;;;;;;22.79;51.66;101840.50;2292459;77;51507;-73
2022/09/05 10:20:57;;;;;;;;;;;;;;;22.79;51.56;101835.10;2292571;76;51526;-74
2022/09/05 10:24:07;;;;;;;;;;;;;;;22.79;51.72;101839.15;2292405;77;51081;-74
2022/09/05 10:27:13;;;;;;;;;;;;;;;22.78;51.58;101832.57;2292452;76;51580;-73
2022/09/05 10:30:16;;;;;;;;;;;;;;;22.76;51.48;101824.67;2292871;76;50849;-76
2022/09/05 10:33:32;;;;;;;;;;;;;;;22.78;51.59;101827.17;2292543;77;51564;-76
2022/09/05 10:36:33;;;;;;;;;;;;;;;22.78;51.63;101827.17;2259399;77;49769;-76
2022/09/05 10:39:36;;;;;;;;;;;;;;;22.77;51.73;101815.55;2292705;76;50683;-76
2022/09/05 10:42:42;;;;;;;;;;;;;;;22.79;51.74;101820.26;2294254;77;50219;-76
2022/09/05 10:45:45;;;;;;;;;;;;;;;22.79;51.70;101808.11;2295494;77;50424;-76
2022/09/05 10:48:54;;;;;;;;;;;;;;;22.77;51.63;101803.41;2259582;76;50141;-75
2022/09/05 10:52:03;;;;;;;;;;;;;;;22.78;51.73;101805.59;2292732;77;51600;-75
2022/09/05 10:55:18;;;;;;;;;;;;;;;22.78;51.73;101803.72;2292764;77;51599;-75
2022/09/05 10:58:42;;;;;;;;;;;;;;;22.76;51.62;101796.34;2292555;77;51480;-75
2022/09/05 11:01:46;;;;;;;;;;;;;;;22.78;51.78;101792.09;2292701;77;22442;-76
2022/09/05 11:04:52;;;;;;;;;;;;;;;22.78;51.81;101790.23;2289390;77;51654;-76
2022/09/05 11:08:00;;;;;;;;;;;;;;;22.77;51.68;101796.66;2292492;76;51551;-74
2022/09/05 11:11:03;;;;;;;;;;;;;;;22.77;51.58;101798.01;2292653;76;50706;-76
2022/09/05 11:14:06;;;;;;;;;;;;;;;22.77;51.56;101785.86;2294137;77;50454;-76
2022/09/05 11:17:12;;;;;;;;;;;;;;;22.78;51.67;101774.03;2299413;76;50753;-74
2022/09/05 11:20:16;;;;;;;;;;;;;;;22.79;51.67;101778.43;2262810;77;52270;-76
2022/09/05 11:23:22;;;;;;;;;;;;;;;22.78;51.61;101767.81;2263004;77;51575;-75
2022/09/05 11:26:34;;;;;;;;;;;;;;;22.78;51.62;101767.81;2231669;78;49633;-74
2022/09/05 11:29:37;;;;;;;;;;;;;;;22.76;51.61;101770.71;2265320;77;51629;-74
2022/09/05 11:32:41;;;;;;;;;;;;;;;22.76;51.63;101771.19;2262906;78;51454;-75
2022/09/05 11:35:44;;;;;;;;;;;;;;;22.77;51.59;101768.33;2263265;77;50672;-76
2022/09/05 11:38:53;;;;;;;;;;;;;;;22.77;51.60;101768.33;2230706;77;52705;-76
2022/09/05 11:42:05;;;;;;;;;;;;;;;22.77;51.60;101766.98;2270455;77;50435;-76
2022/09/05 11:45:12;;;;;;;;;;;;;;;22.76;51.60;101768.02;2295351;76;51495;-76
2022/09/05 11:48:18;;;;;;;;;;;;;;;22.76;51.65;101770.71;2292857;77;50771;-75
2022/09/05 11:51:30;;;;;;;;;;;;;;;22.78;51.53;101767.29;2251616;78;52417;-75
2022/09/05 11:54:53;;;;;;;;;;;;;;;22.80;51.56;101770.65;2270699;77;50436;-76
2022/09/05 11:58:15;;;;;;;;;;;;;;;22.75;50.12;101764.97;2292531;77;49994;-76
2022/09/05 12:01:30;;;;;;;;;;;;;;;22.74;50.17;101766.00;2291736;77;49632;-76
2022/09/05 12:04:36;;;;;;;;;;;;;;;22.75;50.58;101752.83;2262856;77;52814;-76
2022/09/05 12:07:43;;;;;;;;;;;;;;;22.76;50.61;101763.97;2295415;77;50769;-76
2022/09/05 12:10:52;;;;;;;;;;;;;;;22.74;50.52;101752.52;2297319;76;51562;-76
2022/09/05 12:13:55;;;;;;;;;;;;;;;22.75;50.63;101758.22;2297575;77;51434;-76
2022/09/05 12:17:15;;;;;;;;;;;;;;;22.75;50.37;101750.12;2260763;77;49577;-75
2022/09/05 12:20:19;;;;;;;;;;;;;;;22.74;49.96;101751.16;2292622;76;51593;-77
2022/09/05 12:23:25;;;;;;;;;;;;;;;22.75;49.83;101747.42;2293001;77;51660;-75
2022/09/05 12:26:34;;;;;;;;;;;;;;;22.76;49.89;101749.13;2300026;76;50762;-75
2022/09/05 12:29:36;;;;;;;;;;;;;;;22.74;50.13;101739.53;2267470;77;50924;-75
2022/09/05 12:32:49;;;;;;;;;;;;;;;22.78;50.37;101737.61;2300750;76;50725;-75
2022/09/05 12:35:56;;;;;;;;;;;;;;;22.77;50.59;101741.34;2267353;77;52446;-74
2022/09/05 12:39:02;;;;;;;;;;;;;;;22.75;50.65;101742.03;2297516;76;50881;-74
2022/09/05 12:42:06;;;;;;;;;;;;;;;22.75;50.63;101735.28;2263063;77;50155;-74
2022/09/05 12:45:25;;;;;;;;;;;;;;;22.75;50.69;101740.69;2287818;76;51516;-74
2022/09/05 12:48:43;;;;;;;;;;;;;;;22.78;50.87;101731.38;2260482;77;50391;-73
2022/09/05 12:51:46;;;;;;;;;;;;;;;22.79;50.77;101723.11;2260838;77;50476;-75
2022/09/05 12:54:54;;;;;;;;;;;;;;;22.82;50.85;101726.78;2260741;77;50710;-74
2022/09/05 12:58:00;;;;;;;;;;;;;;;22.87;50.85;101726.23;2279764;76;51526;-73
2022/09/05 13:01:08;;;;;;;;;;;;;;;22.88;50.95;101719.80;2293656;76;50849;-74
2022/09/05 13:04:23;;;;;;;;;;;;;;;22.87;50.62;101717.31;2296193;76;51610;-73
2022/09/05 13:07:42;;;;;;;;;;;;;;;22.89;50.58;101719.28;2261146;77;52547;-72
2022/09/05 13:10:44;;;;;;;;;;;;;;;22.86;50.64;101718.31;2292631;76;51656;-76
2022/09/05 13:13:51;;;;;;;;;;;;;;;22.87;50.50;101718.66;2295373;76;51428;-76
2022/09/05 13:16:52;;;;;;;;;;;;;;;22.87;49.96;101722.70;2300568;76;51669;-76
2022/09/05 13:19:54;;;;;;;;;;;;;;;22.88;49.52;101710.88;2267440;77;50960;-75
2022/09/05 13:22:56;;;;;;;;;;;;;;;22.89;49.48;101712.05;2300761;76;52339;-76
2022/09/05 13:26:18;;;;;;;;;;;;;;;22.88;49.20;101709.01;2300490;76;51507;-73
2022/09/05 13:29:20;;;;;;;;;;;;;;;22.91;49.12;101713.20;2261137;77;50216;-76
2022/09/05 13:32:32;;;;;;;;;;;;;;;22.91;49.02;101707.80;2303432;76;50997;-76
2022/09/05 13:35:38;;;;;;;;;;;;;;;22.93;48.55;101711.16;2277536;78;51481;-76
2022/09/05 13:38:41;;;;;;;;;;;;;;;22.94;48.69;101691.22;2276587;76;22359;-76
2022/09/05 13:41:44;;;;;;;;;;;;;;;22.95;48.42;101703.72;2244388;78;50155;-75
2022/09/05 13:44:46;;;;;;;;;;;;;;;22.97;48.41;101699.00;2303369;77;51065;-75
2022/09/05 13:47:59;;;;;;;;;;;;;;;22.96;48.11;101693.23;2277323;78;50440;-76
2022/09/05 13:51:02;;;;;;;;;;;;;;;22.99;48.14;101700.98;2277565;76;50432;-75
2022/09/05 13:54:08;;;;;;;;;;;;;;;22.97;48.05;101703.06;2229363;78;49381;-76
2022/09/05 13:57:16;;;;;;;;;;;;;;;22.97;47.90;101692.26;2250076;78;51398;-76
2022/09/05 14:00:21;;;;;;;;;;;;;;;22.99;47.74;101692.89;2255283;77;23228;-76
2022/09/05 14:03:41;;;;;;;;;;;;;;;23.02;47.76;101696.59;2263118;78;51556;-75
2022/09/05 14:07:00;;;;;;;;;;;;;;;23.02;47.73;101689.31;2262660;77;51451;-76
2022/09/05 14:10:16;;;;;;;;;;;;;;;23.04;47.66;101686.41;2262777;77;51555;-76
2022/09/05 14:13:31;;;;;;;;;;;;;;;23.06;47.69;101688.42;2263246;77;51532;-75
2022/09/05 14:16:33;;;;;;;;;;;;;;;23.04;47.49;101683.71;2262576;77;50778;-76
2022/09/05 14:23:07;;;;;;;;;;;;;;;23.07;47.43;101687.41;2263263;77;22391;-75
2022/09/05 14:26:10;;;;;;;;;;;;;;;23.08;47.40;101689.08;2262727;77;51585;-76
2022/09/05 14:29:13;;;;;;;;;;;;;;;23.09;47.24;101671.84;2294355;76;51565;-76
2022/09/05 14:32:25;;;;;;;;;;;;;;;23.10;47.21;101684.33;2292780;77;51643;-75
2022/09/05 14:35:24;;;;;;;;;;;;;;;23.11;47.10;101679.77;2291439;77;22321;-75
2022/09/05 14:38:44;;;;;;;;;;;;;;;23.13;47.04;101681.77;2292501;77;50310;-75
2022/09/05 14:42:04;;;;;;;;;;;;;;;23.11;47.09;101676.55;2292812;77;51608;-75
2022/09/05 14:45:07;;;;;;;;;;;;;;;23.13;47.13;101670.45;2259702;77;51065;-75
2022/09/05 14:48:13;;;;;;;;;;;;;;;23.15;47.09;101677.85;2259453;77;52692;-75
2022/09/05 14:51:20;;;;;;;;;;;;;;;23.17;47.13;101668.20;2292709;76;50674;-75
2022/09/05 14:54:25;;;;;;;;;;;;;;;23.18;47.10;101665.32;2292682;77;51542;-76
2022/09/05 14:57:28;;;;;;;;;;;;;;;23.20;47.05;101670.02;2292631;77;50386;-75
2022/09/05 15:00:33;;;;;;;;;;;;;;;23.20;47.11;101668.67;2261962;77;51102;-76
2022/09/05 15:03:44;;;;;;;;;;;;;;;23.20;47.07;101672.72;2292790;77;22384;-76
2022/09/05 15:06:47;;;;;;;;;;;;;;;23.22;46.99;101654.48;2292485;77;50475;-76
2022/09/05 15:10:07;;;;;;;;;;;;;;;23.24;47.07;101656.45;2292741;76;50409;-76
2022/09/05 15:13:15;;;;;;;;;;;;;;;23.24;46.95;101655.09;2259640;77;49675;-76
2022/09/05 15:16:16;;;;;;;;;;;;;;;23.25;47.04;101651.39;2292847;77;22299;-79
2022/09/05 15:19:19;;;;;;;;;;;;;;;23.24;47.06;101649.70;2292749;76;51575;-76
2022/09/05 15:22:26;;;;;;;;;;;;;;;23.25;46.96;101648.69;2292657;77;51481;-77
2022/09/05 15:25:28;;;;;;;;;;;;;;;23.28;46.92;101637.20;2292776;76;51569;-77
2022/09/05 15:28:39;;;;;;;;;;;;;;;23.26;46.95;101643.60;2295561;76;51637;-77
2022/09/05 15:31:41;;;;;;;;;;;;;;;23.26;46.92;101639.55;2292438;76;50849;-76
2022/09/05 15:34:42;;;;;;;;;;;;;;;23.26;46.94;101643.60;2292800;77;51526;-77
2022/09/05 15:37:44;;;;;;;;;;;;;;;23.26;46.88;101639.55;2292561;76;51553;-77
2022/09/05 15:40:47;;;;;;;;;;;;;;;23.28;46.81;101634.49;2297599;77;50287;-76
2022/09/05 15:44:07;;;;;;;;;;;;;;;23.28;46.89;101631.80;2292901;77;50753;-76
2022/09/05 15:47:10;;;;;;;;;;;;;;;23.26;46.87;101628.75;2292841;76;50800;-76
2022/09/05 15:50:11;;;;;;;;;;;;;;;23.26;46.83;101630.09;2293193;76;50708;-76
2022/09/05 15:53:16;;;;;;;;;;;;;;;23.25;46.80;101628.44;2293583;77;50758;-75
2022/09/05 15:56:18;;;;;;;;;;;;;;;23.24;46.87;101627.27;2293269;77;50282;-75
2022/09/05 15:59:20;;;;;;;;;;;;;;;23.21;46.93;101639.28;2263489;76;51011;-75
2022/09/05 16:02:23;;;;;;;;;;;;;;;23.24;46.74;101635.37;2297180;76;50815;-75
2022/09/05 16:05:25;;;;;;;;;;;;;;;23.22;46.89;101627.47;2293510;77;51050;-76
2022/09/05 16:08:28;;;;;;;;;;;;;;;23.22;46.84;101627.47;2292949;77;50703;-76